sensor_id;sensor_type;location;lat;lon;timestamp;P1;durP1;ratioP1;P2;durP2;ratioP2
47555;SDS011;33291;46.222;26.460;2024-03-02T00:01:40;16.23;;;6.85;;
47555;SDS011;33291;46.222;26.460;2024-03-02T00:04:05;11.70;;;6.30;;
47555;SDS011;33291;46.222;26.460;2024-03-02T00:06:32;9.23;;;5.30;;
47555;SDS011;33291;46.222;26.460;2024-03-02T00:08:58;14.05;;;6.88;;
47555;SDS011;33291;46.222;26.460;2024-03-02T00:11:24;13.98;;;6.57;;
47555;SDS011;33291;46.222;26.460;2024-03-02T00:13:52;11.13;;;5.93;;
47555;SDS011;33291;46.222;26.460;2024-03-02T00:16:18;11.55;;;6.28;;
47555;SDS011;33291;46.222;26.460;2024-03-02T00:18:45;14.55;;;6.45;;
47555;SDS011;33291;46.222;26.460;2024-03-02T00:21:10;13.15;;;6.47;;
47555;SDS011;33291;46.222;26.460;2024-03-02T00:23:38;13.73;;;6.22;;
47555;SDS011;33291;46.222;26.460;2024-03-02T00:26:04;11.35;;;5.80;;
47555;SDS011;33291;46.222;26.460;2024-03-02T00:28:34;17.05;;;9.13;;
47555;SDS011;33291;46.222;26.460;2024-03-02T00:31:07;11.05;;;6.40;;
47555;SDS011;33291;46.222;26.460;2024-03-02T00:33:37;11.73;;;6.13;;
47555;SDS011;33291;46.222;26.460;2024-03-02T00:36:06;13.20;;;7.57;;
47555;SDS011;33291;46.222;26.460;2024-03-02T00:38:33;14.18;;;6.85;;
47555;SDS011;33291;46.222;26.460;2024-03-02T00:41:06;13.77;;;6.03;;
47555;SDS011;33291;46.222;26.460;2024-03-02T00:46:17;13.90;;;6.82;;
47555;SDS011;33291;46.222;26.460;2024-03-02T00:48:48;10.07;;;5.97;;
47555;SDS011;33291;46.222;26.460;2024-03-02T00:51:19;10.02;;;5.63;;
47555;SDS011;33291;46.222;26.460;2024-03-02T00:53:46;8.98;;;4.85;;
47555;SDS011;33291;46.222;26.460;2024-03-02T00:56:12;13.82;;;5.95;;
47555;SDS011;33291;46.222;26.460;2024-03-02T00:58:39;13.90;;;5.90;;
47555;SDS011;33291;46.222;26.460;2024-03-02T01:01:05;10.40;;;6.20;;
47555;SDS011;33291;46.222;26.460;2024-03-02T01:03:32;16.50;;;5.72;;
47555;SDS011;33291;46.222;26.460;2024-03-02T01:05:58;9.77;;;5.32;;
47555;SDS011;33291;46.222;26.460;2024-03-02T01:08:24;13.00;;;5.28;;
47555;SDS011;33291;46.222;26.460;2024-03-02T01:10:50;13.07;;;5.30;;
47555;SDS011;33291;46.222;26.460;2024-03-02T01:13:15;13.80;;;5.50;;
47555;SDS011;33291;46.222;26.460;2024-03-02T01:15:41;11.48;;;5.53;;
47555;SDS011;33291;46.222;26.460;2024-03-02T01:18:07;15.90;;;6.97;;
47555;SDS011;33291;46.222;26.460;2024-03-02T01:20:32;15.38;;;6.05;;
47555;SDS011;33291;46.222;26.460;2024-03-02T01:22:58;9.18;;;5.82;;
47555;SDS011;33291;46.222;26.460;2024-03-02T01:25:24;13.55;;;7.07;;
47555;SDS011;33291;46.222;26.460;2024-03-02T01:27:50;13.27;;;6.40;;
47555;SDS011;33291;46.222;26.460;2024-03-02T01:30:15;22.02;;;8.18;;
47555;SDS011;33291;46.222;26.460;2024-03-02T01:32:41;19.80;;;8.02;;
47555;SDS011;33291;46.222;26.460;2024-03-02T01:35:07;20.70;;;10.35;;
47555;SDS011;33291;46.222;26.460;2024-03-02T01:37:33;17.23;;;8.25;;
47555;SDS011;33291;46.222;26.460;2024-03-02T01:39:58;18.60;;;8.20;;
47555;SDS011;33291;46.222;26.460;2024-03-02T01:42:24;8.93;;;4.95;;
47555;SDS011;33291;46.222;26.460;2024-03-02T01:44:50;11.80;;;5.07;;
47555;SDS011;33291;46.222;26.460;2024-03-02T01:47:16;10.02;;;5.25;;
47555;SDS011;33291;46.222;26.460;2024-03-02T01:49:41;11.45;;;5.07;;
47555;SDS011;33291;46.222;26.460;2024-03-02T01:52:07;15.57;;;6.95;;
47555;SDS011;33291;46.222;26.460;2024-03-02T01:54:32;8.55;;;4.78;;
47555;SDS011;33291;46.222;26.460;2024-03-02T01:56:58;9.02;;;4.97;;
47555;SDS011;33291;46.222;26.460;2024-03-02T01:59:24;10.40;;;5.00;;
47555;SDS011;33291;46.222;26.460;2024-03-02T02:01:50;10.57;;;5.95;;
47555;SDS011;33291;46.222;26.460;2024-03-02T02:04:16;18.58;;;8.88;;
47555;SDS011;33291;46.222;26.460;2024-03-02T02:06:43;27.70;;;13.43;;
47555;SDS011;33291;46.222;26.460;2024-03-02T02:09:09;19.58;;;9.27;;
47555;SDS011;33291;46.222;26.460;2024-03-02T02:11:35;30.33;;;12.73;;
47555;SDS011;33291;46.222;26.460;2024-03-02T02:14:01;24.20;;;11.57;;
47555;SDS011;33291;46.222;26.460;2024-03-02T02:16:26;14.52;;;7.35;;
47555;SDS011;33291;46.222;26.460;2024-03-02T02:18:52;8.57;;;4.72;;
47555;SDS011;33291;46.222;26.460;2024-03-02T02:21:17;12.05;;;4.72;;
47555;SDS011;33291;46.222;26.460;2024-03-02T02:23:47;8.02;;;4.82;;
47555;SDS011;33291;46.222;26.460;2024-03-02T02:26:13;10.35;;;4.78;;
47555;SDS011;33291;46.222;26.460;2024-03-02T02:28:41;9.85;;;5.30;;
47555;SDS011;33291;46.222;26.460;2024-03-02T02:31:15;11.05;;;5.20;;
47555;SDS011;33291;46.222;26.460;2024-03-02T02:33:41;7.25;;;4.20;;
47555;SDS011;33291;46.222;26.460;2024-03-02T02:36:07;8.95;;;4.35;;
47555;SDS011;33291;46.222;26.460;2024-03-02T02:38:33;7.90;;;4.38;;
47555;SDS011;33291;46.222;26.460;2024-03-02T02:41:03;8.10;;;4.55;;
47555;SDS011;33291;46.222;26.460;2024-03-02T02:43:28;15.73;;;5.53;;
47555;SDS011;33291;46.222;26.460;2024-03-02T02:45:54;12.35;;;5.70;;
47555;SDS011;33291;46.222;26.460;2024-03-02T02:48:19;8.95;;;5.05;;
47555;SDS011;33291;46.222;26.460;2024-03-02T02:50:45;11.45;;;5.25;;
47555;SDS011;33291;46.222;26.460;2024-03-02T02:53:11;13.50;;;5.13;;
47555;SDS011;33291;46.222;26.460;2024-03-02T02:55:36;11.35;;;5.07;;
47555;SDS011;33291;46.222;26.460;2024-03-02T02:58:05;11.60;;;5.25;;
47555;SDS011;33291;46.222;26.460;2024-03-02T03:00:31;9.10;;;5.00;;
47555;SDS011;33291;46.222;26.460;2024-03-02T03:02:57;10.27;;;5.35;;
47555;SDS011;33291;46.222;26.460;2024-03-02T03:05:23;8.93;;;5.00;;
47555;SDS011;33291;46.222;26.460;2024-03-02T03:07:48;9.23;;;4.68;;
47555;SDS011;33291;46.222;26.460;2024-03-02T03:10:15;7.82;;;4.55;;
47555;SDS011;33291;46.222;26.460;2024-03-02T03:12:41;9.27;;;4.50;;
47555;SDS011;33291;46.222;26.460;2024-03-02T03:15:08;11.05;;;5.35;;
47555;SDS011;33291;46.222;26.460;2024-03-02T03:17:34;9.27;;;4.13;;
47555;SDS011;33291;46.222;26.460;2024-03-02T03:20:00;14.25;;;6.93;;
47555;SDS011;33291;46.222;26.460;2024-03-02T03:22:27;10.43;;;5.82;;
47555;SDS011;33291;46.222;26.460;2024-03-02T03:24:52;17.23;;;8.15;;
47555;SDS011;33291;46.222;26.460;2024-03-02T03:27:18;11.38;;;6.05;;
47555;SDS011;33291;46.222;26.460;2024-03-02T03:29:44;10.63;;;6.32;;
47555;SDS011;33291;46.222;26.460;2024-03-02T03:32:10;18.42;;;8.15;;
47555;SDS011;33291;46.222;26.460;2024-03-02T03:34:36;38.78;;;11.23;;
47555;SDS011;33291;46.222;26.460;2024-03-02T03:37:02;21.95;;;10.98;;
47555;SDS011;33291;46.222;26.460;2024-03-02T03:39:28;19.17;;;10.43;;
47555;SDS011;33291;46.222;26.460;2024-03-02T03:41:53;29.08;;;15.82;;
47555;SDS011;33291;46.222;26.460;2024-03-02T03:44:19;37.92;;;19.25;;
47555;SDS011;33291;46.222;26.460;2024-03-02T03:46:45;52.42;;;24.38;;
47555;SDS011;33291;46.222;26.460;2024-03-02T03:49:10;49.05;;;23.83;;
47555;SDS011;33291;46.222;26.460;2024-03-02T03:51:36;46.47;;;20.58;;
47555;SDS011;33291;46.222;26.460;2024-03-02T03:54:01;32.67;;;15.32;;
47555;SDS011;33291;46.222;26.460;2024-03-02T03:56:27;17.95;;;8.73;;
47555;SDS011;33291;46.222;26.460;2024-03-02T03:58:53;16.55;;;6.97;;
47555;SDS011;33291;46.222;26.460;2024-03-02T04:01:18;11.48;;;5.15;;
47555;SDS011;33291;46.222;26.460;2024-03-02T04:03:44;9.68;;;4.53;;
47555;SDS011;33291;46.222;26.460;2024-03-02T04:06:10;8.07;;;4.13;;
47555;SDS011;33291;46.222;26.460;2024-03-02T04:08:35;10.90;;;4.47;;
47555;SDS011;33291;46.222;26.460;2024-03-02T04:11:01;7.00;;;3.95;;
47555;SDS011;33291;46.222;26.460;2024-03-02T04:13:28;8.20;;;4.68;;
47555;SDS011;33291;46.222;26.460;2024-03-02T04:15:53;10.02;;;5.18;;
47555;SDS011;33291;46.222;26.460;2024-03-02T04:18:19;10.73;;;5.82;;
47555;SDS011;33291;46.222;26.460;2024-03-02T04:20:44;24.35;;;11.50;;
47555;SDS011;33291;46.222;26.460;2024-03-02T04:23:10;23.92;;;13.18;;
47555;SDS011;33291;46.222;26.460;2024-03-02T04:25:35;27.23;;;13.57;;
47555;SDS011;33291;46.222;26.460;2024-03-02T04:28:01;11.13;;;5.68;;
47555;SDS011;33291;46.222;26.460;2024-03-02T04:30:26;11.07;;;5.10;;
47555;SDS011;33291;46.222;26.460;2024-03-02T04:32:52;10.52;;;5.20;;
47555;SDS011;33291;46.222;26.460;2024-03-02T04:35:18;21.45;;;11.05;;
47555;SDS011;33291;46.222;26.460;2024-03-02T04:37:43;15.18;;;6.63;;
47555;SDS011;33291;46.222;26.460;2024-03-02T04:40:09;22.75;;;11.80;;
47555;SDS011;33291;46.222;26.460;2024-03-02T04:42:35;17.38;;;8.15;;
47555;SDS011;33291;46.222;26.460;2024-03-02T04:45:01;12.95;;;6.35;;
47555;SDS011;33291;46.222;26.460;2024-03-02T04:47:27;8.40;;;4.63;;
47555;SDS011;33291;46.222;26.460;2024-03-02T04:49:52;8.43;;;4.50;;
47555;SDS011;33291;46.222;26.460;2024-03-02T04:52:18;9.50;;;4.45;;
47555;SDS011;33291;46.222;26.460;2024-03-02T04:54:43;6.40;;;4.10;;
47555;SDS011;33291;46.222;26.460;2024-03-02T04:57:27;11.38;;;4.13;;
47555;SDS011;33291;46.222;26.460;2024-03-02T04:59:53;7.30;;;3.47;;
47555;SDS011;33291;46.222;26.460;2024-03-02T05:02:18;10.02;;;4.10;;
47555;SDS011;33291;46.222;26.460;2024-03-02T05:04:44;7.55;;;3.72;;
47555;SDS011;33291;46.222;26.460;2024-03-02T05:07:09;8.63;;;4.55;;
47555;SDS011;33291;46.222;26.460;2024-03-02T05:09:35;36.33;;;17.80;;
47555;SDS011;33291;46.222;26.460;2024-03-02T05:12:01;40.00;;;20.13;;
47555;SDS011;33291;46.222;26.460;2024-03-02T05:14:45;23.45;;;12.52;;
47555;SDS011;33291;46.222;26.460;2024-03-02T05:17:11;13.82;;;8.80;;
47555;SDS011;33291;46.222;26.460;2024-03-02T05:19:37;13.38;;;4.63;;
47555;SDS011;33291;46.222;26.460;2024-03-02T05:22:03;5.85;;;3.85;;
47555;SDS011;33291;46.222;26.460;2024-03-02T05:24:29;6.45;;;3.40;;
47555;SDS011;33291;46.222;26.460;2024-03-02T05:26:54;6.07;;;3.30;;
47555;SDS011;33291;46.222;26.460;2024-03-02T05:29:20;4.65;;;2.78;;
47555;SDS011;33291;46.222;26.460;2024-03-02T05:31:46;5.15;;;3.15;;
47555;SDS011;33291;46.222;26.460;2024-03-02T05:34:11;6.03;;;3.25;;
47555;SDS011;33291;46.222;26.460;2024-03-02T05:36:37;4.43;;;3.00;;
47555;SDS011;33291;46.222;26.460;2024-03-02T05:39:04;9.20;;;3.22;;
47555;SDS011;33291;46.222;26.460;2024-03-02T05:41:31;18.67;;;8.52;;
47555;SDS011;33291;46.222;26.460;2024-03-02T05:43:57;7.10;;;2.92;;
47555;SDS011;33291;46.222;26.460;2024-03-02T05:46:23;8.93;;;4.78;;
47555;SDS011;33291;46.222;26.460;2024-03-02T05:48:48;6.00;;;3.17;;
47555;SDS011;33291;46.222;26.460;2024-03-02T05:51:14;7.72;;;3.97;;
47555;SDS011;33291;46.222;26.460;2024-03-02T05:53:40;7.47;;;3.83;;
47555;SDS011;33291;46.222;26.460;2024-03-02T05:56:05;8.82;;;4.47;;
47555;SDS011;33291;46.222;26.460;2024-03-02T05:58:31;18.30;;;7.00;;
47555;SDS011;33291;46.222;26.460;2024-03-02T06:01:18;20.38;;;8.63;;
47555;SDS011;33291;46.222;26.460;2024-03-02T06:03:44;23.58;;;10.95;;
47555;SDS011;33291;46.222;26.460;2024-03-02T06:06:09;33.25;;;15.90;;
47555;SDS011;33291;46.222;26.460;2024-03-02T06:08:35;37.65;;;19.02;;
47555;SDS011;33291;46.222;26.460;2024-03-02T06:11:01;54.72;;;26.75;;
47555;SDS011;33291;46.222;26.460;2024-03-02T06:13:26;47.42;;;25.08;;
47555;SDS011;33291;46.222;26.460;2024-03-02T06:15:52;48.35;;;25.48;;
47555;SDS011;33291;46.222;26.460;2024-03-02T06:18:18;54.40;;;25.52;;
47555;SDS011;33291;46.222;26.460;2024-03-02T06:20:44;49.28;;;22.30;;
47555;SDS011;33291;46.222;26.460;2024-03-02T06:23:09;42.22;;;20.77;;
47555;SDS011;33291;46.222;26.460;2024-03-02T06:25:35;40.22;;;20.40;;
47555;SDS011;33291;46.222;26.460;2024-03-02T06:28:00;31.50;;;15.95;;
47555;SDS011;33291;46.222;26.460;2024-03-02T06:30:26;36.67;;;15.80;;
47555;SDS011;33291;46.222;26.460;2024-03-02T06:32:51;28.23;;;15.10;;
47555;SDS011;33291;46.222;26.460;2024-03-02T06:35:17;37.92;;;18.52;;
47555;SDS011;33291;46.222;26.460;2024-03-02T06:37:43;33.72;;;16.55;;
47555;SDS011;33291;46.222;26.460;2024-03-02T06:40:08;27.85;;;13.43;;
47555;SDS011;33291;46.222;26.460;2024-03-02T06:42:34;24.50;;;11.43;;
47555;SDS011;33291;46.222;26.460;2024-03-02T06:45:00;24.08;;;10.20;;
47555;SDS011;33291;46.222;26.460;2024-03-02T06:47:27;17.05;;;8.63;;
47555;SDS011;33291;46.222;26.460;2024-03-02T06:49:52;18.45;;;9.98;;
47555;SDS011;33291;46.222;26.460;2024-03-02T06:52:18;23.60;;;11.05;;
47555;SDS011;33291;46.222;26.460;2024-03-02T06:54:45;18.67;;;9.15;;
47555;SDS011;33291;46.222;26.460;2024-03-02T06:57:12;17.73;;;9.15;;
47555;SDS011;33291;46.222;26.460;2024-03-02T06:59:37;15.70;;;8.32;;
47555;SDS011;33291;46.222;26.460;2024-03-02T07:02:03;13.05;;;7.10;;
47555;SDS011;33291;46.222;26.460;2024-03-02T07:04:28;15.48;;;8.48;;
47555;SDS011;33291;46.222;26.460;2024-03-02T07:06:54;13.00;;;7.15;;
47555;SDS011;33291;46.222;26.460;2024-03-02T07:09:20;14.93;;;8.00;;
47555;SDS011;33291;46.222;26.460;2024-03-02T07:11:48;21.50;;;7.80;;
47555;SDS011;33291;46.222;26.460;2024-03-02T07:14:14;16.52;;;7.03;;
47555;SDS011;33291;46.222;26.460;2024-03-02T07:16:40;12.23;;;6.65;;
47555;SDS011;33291;46.222;26.460;2024-03-02T07:19:06;13.25;;;6.85;;
47555;SDS011;33291;46.222;26.460;2024-03-02T07:21:31;12.77;;;7.25;;
47555;SDS011;33291;46.222;26.460;2024-03-02T07:23:58;14.70;;;7.60;;
47555;SDS011;33291;46.222;26.460;2024-03-02T07:26:24;12.80;;;7.13;;
47555;SDS011;33291;46.222;26.460;2024-03-02T07:28:50;16.88;;;8.05;;
47555;SDS011;33291;46.222;26.460;2024-03-02T07:31:16;13.57;;;7.28;;
47555;SDS011;33291;46.222;26.460;2024-03-02T07:33:43;16.55;;;8.00;;
47555;SDS011;33291;46.222;26.460;2024-03-02T07:36:10;14.48;;;7.18;;
47555;SDS011;33291;46.222;26.460;2024-03-02T07:38:36;18.45;;;8.68;;
47555;SDS011;33291;46.222;26.460;2024-03-02T07:41:01;21.48;;;8.63;;
47555;SDS011;33291;46.222;26.460;2024-03-02T07:43:29;14.80;;;8.05;;
47555;SDS011;33291;46.222;26.460;2024-03-02T07:45:55;16.20;;;7.93;;
47555;SDS011;33291;46.222;26.460;2024-03-02T07:48:22;13.43;;;7.47;;
47555;SDS011;33291;46.222;26.460;2024-03-02T07:50:47;14.25;;;7.28;;
47555;SDS011;33291;46.222;26.460;2024-03-02T07:53:13;19.95;;;7.75;;
47555;SDS011;33291;46.222;26.460;2024-03-02T07:55:39;22.20;;;9.30;;
47555;SDS011;33291;46.222;26.460;2024-03-02T07:58:05;15.68;;;8.23;;
47555;SDS011;33291;46.222;26.460;2024-03-02T08:00:32;15.23;;;7.18;;
47555;SDS011;33291;46.222;26.460;2024-03-02T08:02:57;17.52;;;7.97;;
47555;SDS011;33291;46.222;26.460;2024-03-02T08:05:23;19.15;;;8.07;;
47555;SDS011;33291;46.222;26.460;2024-03-02T08:07:49;19.80;;;8.82;;
47555;SDS011;33291;46.222;26.460;2024-03-02T08:10:17;18.77;;;8.15;;
47555;SDS011;33291;46.222;26.460;2024-03-02T08:12:43;18.08;;;8.13;;
47555;SDS011;33291;46.222;26.460;2024-03-02T08:15:09;18.15;;;7.85;;
47555;SDS011;33291;46.222;26.460;2024-03-02T08:17:34;12.38;;;7.10;;
47555;SDS011;33291;46.222;26.460;2024-03-02T08:20:00;15.15;;;7.93;;
47555;SDS011;33291;46.222;26.460;2024-03-02T08:22:26;19.08;;;7.63;;
47555;SDS011;33291;46.222;26.460;2024-03-02T08:24:52;21.65;;;8.40;;
47555;SDS011;33291;46.222;26.460;2024-03-02T08:27:18;17.73;;;8.15;;
47555;SDS011;33291;46.222;26.460;2024-03-02T08:29:43;15.82;;;7.28;;
47555;SDS011;33291;46.222;26.460;2024-03-02T08:32:09;17.45;;;7.15;;
47555;SDS011;33291;46.222;26.460;2024-03-02T08:34:34;26.52;;;8.55;;
47555;SDS011;33291;46.222;26.460;2024-03-02T08:37:03;24.88;;;10.38;;
47555;SDS011;33291;46.222;26.460;2024-03-02T08:39:29;21.65;;;9.27;;
47555;SDS011;33291;46.222;26.460;2024-03-02T08:41:55;27.33;;;10.93;;
47555;SDS011;33291;46.222;26.460;2024-03-02T08:44:20;22.50;;;10.73;;
47555;SDS011;33291;46.222;26.460;2024-03-02T08:46:46;17.48;;;8.27;;
47555;SDS011;33291;46.222;26.460;2024-03-02T08:49:12;18.60;;;9.00;;
47555;SDS011;33291;46.222;26.460;2024-03-02T08:51:38;14.38;;;6.93;;
47555;SDS011;33291;46.222;26.460;2024-03-02T08:54:04;14.07;;;7.47;;
47555;SDS011;33291;46.222;26.460;2024-03-02T08:56:30;16.80;;;7.90;;
47555;SDS011;33291;46.222;26.460;2024-03-02T08:58:56;15.93;;;7.93;;
47555;SDS011;33291;46.222;26.460;2024-03-02T09:01:22;13.80;;;7.10;;
47555;SDS011;33291;46.222;26.460;2024-03-02T09:03:48;21.50;;;11.00;;
47555;SDS011;33291;46.222;26.460;2024-03-02T09:06:14;19.73;;;9.27;;
47555;SDS011;33291;46.222;26.460;2024-03-02T09:08:44;16.73;;;8.77;;
47555;SDS011;33291;46.222;26.460;2024-03-02T09:11:10;14.50;;;8.07;;
47555;SDS011;33291;46.222;26.460;2024-03-02T09:13:37;21.02;;;9.73;;
47555;SDS011;33291;46.222;26.460;2024-03-02T09:16:03;23.17;;;10.68;;
47555;SDS011;33291;46.222;26.460;2024-03-02T09:18:30;26.23;;;11.65;;
47555;SDS011;33291;46.222;26.460;2024-03-02T09:20:56;22.60;;;9.52;;
47555;SDS011;33291;46.222;26.460;2024-03-02T09:23:21;23.48;;;10.80;;
47555;SDS011;33291;46.222;26.460;2024-03-02T09:25:47;21.77;;;10.02;;
47555;SDS011;33291;46.222;26.460;2024-03-02T09:28:13;32.70;;;14.80;;
47555;SDS011;33291;46.222;26.460;2024-03-02T09:30:40;21.48;;;11.07;;
47555;SDS011;33291;46.222;26.460;2024-03-02T09:33:06;19.42;;;10.20;;
47555;SDS011;33291;46.222;26.460;2024-03-02T09:35:31;24.98;;;10.05;;
47555;SDS011;33291;46.222;26.460;2024-03-02T09:37:57;18.50;;;9.68;;
47555;SDS011;33291;46.222;26.460;2024-03-02T09:40:23;17.73;;;8.80;;
47555;SDS011;33291;46.222;26.460;2024-03-02T09:42:49;22.27;;;9.70;;
47555;SDS011;33291;46.222;26.460;2024-03-02T09:45:20;25.35;;;12.18;;
47555;SDS011;33291;46.222;26.460;2024-03-02T09:47:48;34.50;;;13.68;;
47555;SDS011;33291;46.222;26.460;2024-03-02T09:50:14;25.55;;;12.35;;
47555;SDS011;33291;46.222;26.460;2024-03-02T09:52:40;21.33;;;11.10;;
47555;SDS011;33291;46.222;26.460;2024-03-02T09:55:08;21.15;;;10.55;;
47555;SDS011;33291;46.222;26.460;2024-03-02T09:57:34;20.40;;;10.88;;
47555;SDS011;33291;46.222;26.460;2024-03-02T10:00:00;27.05;;;12.10;;
47555;SDS011;33291;46.222;26.460;2024-03-02T10:02:25;19.60;;;10.45;;
47555;SDS011;33291;46.222;26.460;2024-03-02T10:04:51;28.23;;;11.95;;
47555;SDS011;33291;46.222;26.460;2024-03-02T10:07:17;22.38;;;11.20;;
47555;SDS011;33291;46.222;26.460;2024-03-02T10:09:45;23.13;;;10.93;;
47555;SDS011;33291;46.222;26.460;2024-03-02T10:12:12;23.25;;;10.57;;
47555;SDS011;33291;46.222;26.460;2024-03-02T10:14:39;18.38;;;9.30;;
47555;SDS011;33291;46.222;26.460;2024-03-02T10:17:05;23.15;;;10.15;;
47555;SDS011;33291;46.222;26.460;2024-03-02T10:19:32;18.02;;;10.18;;
47555;SDS011;33291;46.222;26.460;2024-03-02T10:22:01;18.10;;;9.93;;
47555;SDS011;33291;46.222;26.460;2024-03-02T10:24:28;22.60;;;9.25;;
47555;SDS011;33291;46.222;26.460;2024-03-02T10:27:26;20.42;;;9.27;;
47555;SDS011;33291;46.222;26.460;2024-03-02T10:29:52;19.75;;;8.00;;
47555;SDS011;33291;46.222;26.460;2024-03-02T10:32:18;16.38;;;8.30;;
47555;SDS011;33291;46.222;26.460;2024-03-02T10:34:47;19.05;;;9.60;;
47555;SDS011;33291;46.222;26.460;2024-03-02T10:37:13;15.25;;;8.40;;
47555;SDS011;33291;46.222;26.460;2024-03-02T10:39:40;14.15;;;7.10;;
47555;SDS011;33291;46.222;26.460;2024-03-02T10:42:05;17.80;;;7.13;;
47555;SDS011;33291;46.222;26.460;2024-03-02T10:44:32;15.25;;;7.18;;
47555;SDS011;33291;46.222;26.460;2024-03-02T10:47:07;17.77;;;7.60;;
47555;SDS011;33291;46.222;26.460;2024-03-02T10:49:34;14.75;;;7.07;;
47555;SDS011;33291;46.222;26.460;2024-03-02T10:51:59;15.93;;;6.50;;
47555;SDS011;33291;46.222;26.460;2024-03-02T10:54:25;18.27;;;7.85;;
47555;SDS011;33291;46.222;26.460;2024-03-02T10:56:52;18.23;;;7.05;;
47555;SDS011;33291;46.222;26.460;2024-03-02T11:01:56;15.85;;;7.22;;
47555;SDS011;33291;46.222;26.460;2024-03-02T11:04:25;17.52;;;7.18;;
47555;SDS011;33291;46.222;26.460;2024-03-02T11:06:54;16.25;;;6.60;;
47555;SDS011;33291;46.222;26.460;2024-03-02T11:09:25;18.30;;;7.60;;
47555;SDS011;33291;46.222;26.460;2024-03-02T11:11:56;14.52;;;6.28;;
47555;SDS011;33291;46.222;26.460;2024-03-02T11:16:55;12.60;;;5.28;;
47555;SDS011;33291;46.222;26.460;2024-03-02T11:19:21;14.95;;;6.68;;
47555;SDS011;33291;46.222;26.460;2024-03-02T11:21:47;9.93;;;5.88;;
47555;SDS011;33291;46.222;26.460;2024-03-02T11:27:14;11.02;;;6.00;;
47555;SDS011;33291;46.222;26.460;2024-03-02T11:29:59;13.20;;;6.32;;
47555;SDS011;33291;46.222;26.460;2024-03-02T11:32:25;22.08;;;6.57;;
47555;SDS011;33291;46.222;26.460;2024-03-02T11:34:51;15.23;;;5.68;;
47555;SDS011;33291;46.222;26.460;2024-03-02T11:37:20;13.60;;;6.15;;
47555;SDS011;33291;46.222;26.460;2024-03-02T11:39:46;13.70;;;6.30;;
47555;SDS011;33291;46.222;26.460;2024-03-02T11:42:14;20.75;;;6.45;;
47555;SDS011;33291;46.222;26.460;2024-03-02T11:44:47;17.50;;;6.35;;
47555;SDS011;33291;46.222;26.460;2024-03-02T11:47:16;14.63;;;5.53;;
47555;SDS011;33291;46.222;26.460;2024-03-02T11:49:46;14.10;;;5.68;;
47555;SDS011;33291;46.222;26.460;2024-03-02T11:52:15;13.27;;;5.70;;
47555;SDS011;33291;46.222;26.460;2024-03-02T11:54:43;15.70;;;6.72;;
47555;SDS011;33291;46.222;26.460;2024-03-02T11:57:32;17.20;;;6.63;;
47555;SDS011;33291;46.222;26.460;2024-03-02T11:59:57;11.75;;;5.35;;
47555;SDS011;33291;46.222;26.460;2024-03-02T12:02:24;16.40;;;6.57;;
47555;SDS011;33291;46.222;26.460;2024-03-02T12:04:50;13.40;;;5.50;;
47555;SDS011;33291;46.222;26.460;2024-03-02T12:07:22;11.70;;;5.18;;
47555;SDS011;33291;46.222;26.460;2024-03-02T12:10:09;13.82;;;5.55;;
47555;SDS011;33291;46.222;26.460;2024-03-02T12:12:34;17.33;;;6.32;;
47555;SDS011;33291;46.222;26.460;2024-03-02T12:15:00;11.98;;;5.30;;
47555;SDS011;33291;46.222;26.460;2024-03-02T12:17:29;15.57;;;6.05;;
47555;SDS011;33291;46.222;26.460;2024-03-02T12:19:54;10.52;;;4.90;;
47555;SDS011;33291;46.222;26.460;2024-03-02T12:22:20;12.73;;;5.10;;
47555;SDS011;33291;46.222;26.460;2024-03-02T12:24:46;14.05;;;6.78;;
47555;SDS011;33291;46.222;26.460;2024-03-02T12:27:12;15.13;;;6.55;;
47555;SDS011;33291;46.222;26.460;2024-03-02T12:29:40;22.63;;;7.18;;
47555;SDS011;33291;46.222;26.460;2024-03-02T12:32:06;13.60;;;6.18;;
47555;SDS011;33291;46.222;26.460;2024-03-02T12:34:33;16.33;;;5.55;;
47555;SDS011;33291;46.222;26.460;2024-03-02T12:36:59;15.55;;;6.20;;
47555;SDS011;33291;46.222;26.460;2024-03-02T12:39:25;17.85;;;6.38;;
47555;SDS011;33291;46.222;26.460;2024-03-02T12:41:51;12.18;;;6.20;;
47555;SDS011;33291;46.222;26.460;2024-03-02T12:44:19;12.30;;;6.13;;
47555;SDS011;33291;46.222;26.460;2024-03-02T12:46:45;13.75;;;6.88;;
47555;SDS011;33291;46.222;26.460;2024-03-02T12:49:12;19.38;;;5.95;;
47555;SDS011;33291;46.222;26.460;2024-03-02T12:51:39;18.95;;;6.90;;
47555;SDS011;33291;46.222;26.460;2024-03-02T12:54:09;23.95;;;7.80;;
47555;SDS011;33291;46.222;26.460;2024-03-02T12:56:36;18.27;;;8.27;;
47555;SDS011;33291;46.222;26.460;2024-03-02T12:59:02;13.13;;;6.90;;
47555;SDS011;33291;46.222;26.460;2024-03-02T13:01:31;10.85;;;6.35;;
47555;SDS011;33291;46.222;26.460;2024-03-02T13:03:57;17.23;;;7.35;;
47555;SDS011;33291;46.222;26.460;2024-03-02T13:06:24;15.80;;;6.80;;
47555;SDS011;33291;46.222;26.460;2024-03-02T13:08:54;23.02;;;8.13;;
47555;SDS011;33291;46.222;26.460;2024-03-02T13:11:23;16.73;;;7.75;;
47555;SDS011;33291;46.222;26.460;2024-03-02T13:13:49;22.10;;;7.55;;
47555;SDS011;33291;46.222;26.460;2024-03-02T13:16:15;18.27;;;8.40;;
47555;SDS011;33291;46.222;26.460;2024-03-02T13:18:44;22.02;;;10.15;;
47555;SDS011;33291;46.222;26.460;2024-03-02T13:21:09;14.77;;;7.90;;
47555;SDS011;33291;46.222;26.460;2024-03-02T13:23:35;15.32;;;7.70;;
47555;SDS011;33291;46.222;26.460;2024-03-02T13:26:02;16.55;;;7.18;;
47555;SDS011;33291;46.222;26.460;2024-03-02T13:28:27;14.13;;;8.18;;
47555;SDS011;33291;46.222;26.460;2024-03-02T13:30:53;17.23;;;8.15;;
47555;SDS011;33291;46.222;26.460;2024-03-02T13:33:19;19.20;;;7.65;;
47555;SDS011;33291;46.222;26.460;2024-03-02T13:35:50;19.52;;;8.40;;
47555;SDS011;33291;46.222;26.460;2024-03-02T13:38:17;18.92;;;7.72;;
47555;SDS011;33291;46.222;26.460;2024-03-02T13:40:44;15.40;;;8.85;;
47555;SDS011;33291;46.222;26.460;2024-03-02T13:43:10;18.85;;;8.02;;
47555;SDS011;33291;46.222;26.460;2024-03-02T13:45:37;19.27;;;7.38;;
47555;SDS011;33291;46.222;26.460;2024-03-02T13:48:03;18.08;;;7.57;;
47555;SDS011;33291;46.222;26.460;2024-03-02T13:50:29;13.00;;;6.85;;
47555;SDS011;33291;46.222;26.460;2024-03-02T13:52:55;18.38;;;7.82;;
47555;SDS011;33291;46.222;26.460;2024-03-02T13:55:21;18.23;;;7.88;;
47555;SDS011;33291;46.222;26.460;2024-03-02T13:57:47;18.20;;;7.97;;
47555;SDS011;33291;46.222;26.460;2024-03-02T14:00:15;18.90;;;8.50;;
47555;SDS011;33291;46.222;26.460;2024-03-02T14:02:42;29.88;;;12.55;;
47555;SDS011;33291;46.222;26.460;2024-03-02T14:05:08;23.00;;;10.00;;
47555;SDS011;33291;46.222;26.460;2024-03-02T14:07:40;24.10;;;8.85;;
47555;SDS011;33291;46.222;26.460;2024-03-02T14:10:06;22.85;;;10.55;;
47555;SDS011;33291;46.222;26.460;2024-03-02T14:12:32;22.73;;;10.88;;
47555;SDS011;33291;46.222;26.460;2024-03-02T14:14:58;28.67;;;11.25;;
47555;SDS011;33291;46.222;26.460;2024-03-02T14:17:24;18.92;;;8.65;;
47555;SDS011;33291;46.222;26.460;2024-03-02T14:19:50;14.18;;;7.13;;
47555;SDS011;33291;46.222;26.460;2024-03-02T14:22:18;12.25;;;7.43;;
47555;SDS011;33291;46.222;26.460;2024-03-02T14:24:44;15.98;;;7.38;;
47555;SDS011;33291;46.222;26.460;2024-03-02T14:27:10;17.35;;;7.60;;
47555;SDS011;33291;46.222;26.460;2024-03-02T14:29:35;12.88;;;6.47;;